createdAt,value
2022-11-22T00:00:30.944Z,96493.66
2022-11-22T00:02:35.847Z,96495.19
2022-11-22T00:04:40.688Z,96486.44
2022-11-22T00:06:48.925Z,96484.72
2022-11-22T00:08:53.712Z,96479.34
2022-11-22T00:10:58.548Z,96469.78
2022-11-22T00:13:04.134Z,96463.88
2022-11-22T00:15:12.827Z,96458.56
2022-11-22T00:17:17.667Z,96455.00
2022-11-22T00:19:22.448Z,96452.50
2022-11-22T00:21:27.224Z,96455.78
2022-11-22T00:23:32.008Z,96454.94
2022-11-22T00:25:36.852Z,96448.72
2022-11-22T00:27:41.807Z,96456.38
2022-11-22T00:29:46.694Z,96452.88
2022-11-22T00:31:54.030Z,96452.72
2022-11-22T00:33:58.957Z,96454.25
2022-11-22T00:36:03.749Z,96460.00
2022-11-22T00:38:08.547Z,96451.50
2022-11-22T00:40:14.178Z,96445.47
2022-11-22T00:42:18.998Z,96442.25
2022-11-22T00:44:23.855Z,96442.19
2022-11-22T00:46:28.742Z,96435.44
2022-11-22T00:48:36.139Z,96406.00
2022-11-22T00:50:41.600Z,96422.25
2022-11-22T00:52:46.524Z,96418.38
2022-11-22T00:54:54.842Z,96422.78
2022-11-22T00:57:00.101Z,96413.22
2022-11-22T00:59:05.072Z,96428.69
2022-11-22T01:01:09.924Z,96411.63
2022-11-22T01:03:16.058Z,96417.59
2022-11-22T01:05:23.489Z,96420.50
2022-11-22T01:07:28.358Z,96422.09
2022-11-22T01:09:33.158Z,96420.34
2022-11-22T01:11:37.990Z,96422.84
2022-11-22T01:13:42.919Z,96417.91
2022-11-22T01:15:47.778Z,96417.09
2022-11-22T01:17:52.646Z,96412.53
2022-11-22T01:19:57.493Z,96404.66
2022-11-22T01:22:04.851Z,96402.06
2022-11-22T01:24:10.772Z,96414.19
2022-11-22T01:26:13.046Z,96416.63
2022-11-22T01:28:17.974Z,96420.03
2022-11-22T01:30:22.850Z,96418.22
2022-11-22T01:32:27.658Z,96411.97
2022-11-22T01:34:32.465Z,96408.50
2022-11-22T01:36:37.315Z,96406.75
2022-11-22T01:38:44.713Z,96408.25
2022-11-22T01:40:50.374Z,96400.78
2022-11-22T01:42:57.473Z,96399.03
2022-11-22T01:45:32.123Z,96392.13
2022-11-22T01:47:37.131Z,96390.31
2022-11-22T01:49:46.901Z,96393.03
2022-11-22T01:51:54.599Z,96389.38
2022-11-22T01:54:05.531Z,96387.88
2022-11-22T01:56:15.236Z,96397.50
2022-11-22T01:58:22.761Z,96394.34
2022-11-22T02:00:27.610Z,96399.34
2022-11-22T02:02:32.480Z,96402.38
2022-11-22T02:04:39.633Z,96401.00
2022-11-22T02:06:52.794Z,96405.47
2022-11-22T02:09:04.565Z,96397.91
2022-11-22T02:11:11.420Z,96398.06
2022-11-22T02:13:17.540Z,96395.22
2022-11-22T02:15:22.449Z,96394.50
2022-11-22T02:17:28.987Z,96395.38
2022-11-22T02:19:42.073Z,96390.69
2022-11-22T02:21:51.379Z,96369.13
2022-11-22T02:24:02.932Z,96370.50
2022-11-22T02:26:10.665Z,96359.38
2022-11-22T02:28:16.506Z,96374.00
2022-11-22T02:30:22.066Z,96396.22
2022-11-22T02:32:26.865Z,96400.38
2022-11-22T02:34:31.770Z,96401.97
2022-11-22T02:36:40.827Z,96408.41
2022-11-22T02:38:46.177Z,96412.53
2022-11-22T02:40:56.453Z,96408.72
2022-11-22T02:43:07.935Z,96409.22
2022-11-22T02:45:16.058Z,96410.91
2022-11-22T02:47:20.853Z,96410.38
2022-11-22T02:49:27.825Z,96412.78
2022-11-22T02:51:32.995Z,96414.31
2022-11-22T02:53:38.013Z,96409.78
2022-11-22T02:55:43.054Z,96402.75
2022-11-22T02:57:47.868Z,96404.34
2022-11-22T02:59:55.266Z,96408.63
2022-11-22T03:02:03.448Z,96406.03
2022-11-22T03:04:08.586Z,96401.00
2022-11-22T03:06:13.594Z,96396.00
2022-11-22T03:08:18.668Z,96389.28
2022-11-22T03:10:23.463Z,96395.28
2022-11-22T03:12:28.304Z,96397.91
2022-11-22T03:14:33.177Z,96408.09
2022-11-22T03:16:40.589Z,96412.19
2022-11-22T03:18:48.462Z,96404.44
2022-11-22T03:20:53.279Z,96406.94
2022-11-22T03:22:58.116Z,96417.94
2022-11-22T03:25:03.012Z,96415.28
2022-11-22T03:27:07.854Z,96419.69
2022-11-22T03:29:12.702Z,96417.03
2022-11-22T03:31:17.551Z,96422.94
2022-11-22T03:33:25.065Z,96424.34
2022-11-22T03:35:29.854Z,96417.47
2022-11-22T03:37:34.873Z,96414.81
2022-11-22T03:39:39.678Z,96423.31
2022-11-22T03:41:44.554Z,96418.16
2022-11-22T03:43:49.353Z,96417.97
2022-11-22T03:45:54.203Z,96413.81
2022-11-22T03:48:01.141Z,96412.31
2022-11-22T03:50:09.658Z,96407.06
2022-11-22T03:52:15.174Z,96409.47
2022-11-22T03:54:21.298Z,96419.47
2022-11-22T03:56:28.526Z,96419.16
2022-11-22T03:58:34.649Z,96413.59
2022-11-22T04:00:39.263Z,96421.19
2022-11-22T04:02:44.066Z,96427.28
2022-11-22T04:04:48.958Z,96424.69
2022-11-22T04:06:56.397Z,96433.03
2022-11-22T04:09:01.316Z,96430.56
2022-11-22T04:11:06.200Z,96431.31
2022-11-22T04:13:11.066Z,96433.91
2022-11-22T04:15:16.291Z,96434.63
2022-11-22T04:17:40.512Z,96434.72
2022-11-22T04:20:00.574Z,96440.94
2022-11-22T04:22:07.969Z,96446.88
2022-11-22T04:24:27.053Z,96444.53
2022-11-22T04:26:31.843Z,96443.53
2022-11-22T04:29:07.616Z,96441.81
2022-11-22T04:31:13.883Z,96445.06
2022-11-22T04:33:19.344Z,96451.72
2022-11-22T04:35:24.119Z,96459.31
2022-11-22T04:37:31.654Z,96463.41
2022-11-22T04:39:36.986Z,96459.91
2022-11-22T04:41:44.615Z,96467.81
2022-11-22T04:44:01.856Z,96466.00
2022-11-22T04:46:06.727Z,96463.75
2022-11-22T04:48:12.979Z,96465.31
2022-11-22T04:50:30.825Z,96463.41
2022-11-22T04:52:50.637Z,96465.03
2022-11-22T04:54:55.503Z,96466.84
2022-11-22T04:57:00.933Z,96457.88
2022-11-22T04:59:05.808Z,96460.44
2022-11-22T05:01:10.823Z,96463.78
2022-11-22T05:03:15.722Z,96455.06
2022-11-22T05:05:20.519Z,96442.97
2022-11-22T05:07:25.418Z,96444.56
2022-11-22T05:09:32.938Z,96454.13
2022-11-22T05:11:37.853Z,96457.03
2022-11-22T05:13:44.715Z,96469.19
2022-11-22T05:15:51.471Z,96471.53
2022-11-22T05:17:56.318Z,96471.31
2022-11-22T05:20:01.202Z,96471.16
2022-11-22T05:22:06.084Z,96457.16
2022-11-22T05:24:08.967Z,96456.38
2022-11-22T05:26:16.498Z,96458.81
2022-11-22T05:28:21.402Z,96459.56
2022-11-22T05:30:26.187Z,96451.38
2022-11-22T05:32:32.830Z,96459.13
2022-11-22T05:34:37.688Z,96458.97
2022-11-22T05:36:45.187Z,96459.06
2022-11-22T05:38:50.279Z,96466.22
2022-11-22T05:40:55.152Z,96483.25
2022-11-22T05:43:02.706Z,96479.41
2022-11-22T05:45:08.648Z,96472.25
2022-11-22T05:47:17.925Z,96477.91
2022-11-22T05:49:22.795Z,96474.25
2022-11-22T05:51:34.096Z,96480.75
2022-11-22T05:53:40.833Z,96480.50
2022-11-22T05:55:48.602Z,96477.09
2022-11-22T05:57:53.463Z,96483.25
2022-11-22T06:00:00.886Z,96487.41
2022-11-22T06:02:05.771Z,96494.94
2022-11-22T06:04:10.679Z,96486.09
2022-11-22T06:06:15.855Z,96493.78
2022-11-22T06:08:20.722Z,96498.13
2022-11-22T06:10:25.783Z,96496.44
2022-11-22T06:12:30.589Z,96497.75
2022-11-22T06:14:38.638Z,96504.78
2022-11-22T06:16:50.340Z,96501.94
2022-11-22T06:18:56.520Z,96506.03
2022-11-22T06:21:02.533Z,96503.94
2022-11-22T06:23:07.326Z,96504.88
2022-11-22T06:25:13.305Z,96503.19
2022-11-22T06:27:18.144Z,96503.28
2022-11-22T06:29:22.968Z,96505.13
2022-11-22T06:31:29.366Z,96509.78
2022-11-22T06:33:37.168Z,96514.53
2022-11-22T06:35:42.023Z,96517.03
2022-11-22T06:37:46.808Z,96522.13
2022-11-22T06:39:51.625Z,96523.13
2022-11-22T06:41:56.568Z,96525.56
2022-11-22T06:44:01.458Z,96521.94
2022-11-22T06:46:07.610Z,96522.72
2022-11-22T06:48:12.569Z,96518.31
2022-11-22T06:50:21.865Z,96524.13
2022-11-22T06:52:26.922Z,96520.63
2022-11-22T06:54:31.742Z,96527.38
2022-11-22T06:56:40.549Z,96529.91
2022-11-22T06:58:46.362Z,96525.72
2022-11-22T07:00:51.315Z,96545.66
2022-11-22T07:02:56.077Z,96542.00
2022-11-22T07:05:24.637Z,96537.56
2022-11-22T07:07:28.386Z,96538.47
2022-11-22T07:09:33.448Z,96537.66
2022-11-22T07:11:38.907Z,96540.41
2022-11-22T07:13:44.494Z,96551.75
2022-11-22T07:15:57.810Z,96557.69
2022-11-22T07:18:02.580Z,96564.91
2022-11-22T07:20:09.017Z,96576.16
2022-11-22T07:22:13.865Z,96573.59
2022-11-22T07:24:21.325Z,96587.28
2022-11-22T07:26:28.672Z,96582.00
2022-11-22T07:28:33.635Z,96582.66
2022-11-22T07:30:42.632Z,96591.13
2022-11-22T07:32:50.393Z,96590.84
2022-11-22T07:34:55.188Z,96593.22
2022-11-22T07:37:04.807Z,96595.63
2022-11-22T07:39:12.669Z,96603.22
2022-11-22T07:41:22.298Z,96617.75
2022-11-22T07:43:27.141Z,96608.06
2022-11-22T07:45:31.944Z,96610.59
2022-11-22T07:47:36.738Z,96615.59
2022-11-22T07:49:42.039Z,96621.50
2022-11-22T07:51:46.846Z,96634.59
2022-11-22T07:53:51.753Z,96638.59
2022-11-22T07:55:57.749Z,96642.63
2022-11-22T07:58:05.632Z,96643.13
2022-11-22T08:00:13.252Z,96648.22
2022-11-22T08:02:18.088Z,96646.28
2022-11-22T08:04:22.972Z,96651.41
2022-11-22T08:06:27.755Z,96648.97
2022-11-22T08:08:32.557Z,96651.47
2022-11-22T08:10:37.436Z,96661.81
2022-11-22T08:12:43.198Z,96663.34
2022-11-22T08:14:50.541Z,96666.44
2022-11-22T08:16:55.810Z,96677.44
2022-11-22T08:19:00.786Z,96677.38
2022-11-22T08:21:07.668Z,96675.44
2022-11-22T08:23:12.625Z,96682.13
2022-11-22T08:25:17.463Z,96688.88
2022-11-22T08:27:22.309Z,96687.88
2022-11-22T08:29:29.331Z,96687.72
2022-11-22T08:31:36.926Z,96689.13
2022-11-22T08:33:42.958Z,96686.44
2022-11-22T08:35:52.662Z,96682.84
2022-11-22T08:38:00.379Z,96677.50
2022-11-22T08:40:05.171Z,96677.31
2022-11-22T08:42:10.142Z,96685.78
2022-11-22T08:44:14.910Z,96678.66
2022-11-22T08:46:20.363Z,96675.97
2022-11-22T08:48:28.537Z,96678.50
2022-11-22T08:50:33.450Z,96677.75
2022-11-22T08:52:38.229Z,96675.84
2022-11-22T08:54:43.132Z,96683.50
2022-11-22T08:56:47.901Z,96683.50
2022-11-22T08:58:52.674Z,96677.56
2022-11-22T09:00:57.518Z,96687.84
2022-11-22T09:03:02.342Z,96680.75
2022-11-22T09:05:10.262Z,96685.50
2022-11-22T09:09:39.847Z,96685.16
2022-11-22T09:11:44.696Z,96689.41
2022-11-22T09:13:50.423Z,96684.22
2022-11-22T09:15:55.364Z,96685.16
2022-11-22T09:18:03.957Z,96691.00
2022-11-22T09:20:14.792Z,96690.81
2022-11-22T09:22:22.823Z,96700.75
2022-11-22T09:24:33.117Z,96693.81
2022-11-22T09:26:38.023Z,96699.56
2022-11-22T09:28:42.884Z,96703.00
2022-11-22T09:30:47.735Z,96701.06
2022-11-22T09:32:52.718Z,96702.16
2022-11-22T09:34:58.125Z,96701.06
2022-11-22T09:37:06.214Z,96710.59
2022-11-22T09:39:11.782Z,96700.81
2022-11-22T09:41:29.169Z,96696.25
2022-11-22T09:43:46.781Z,96694.50
2022-11-22T09:46:14.064Z,96703.47
2022-11-22T09:48:36.314Z,96703.28
2022-11-22T09:50:51.632Z,96712.75
2022-11-22T09:53:05.859Z,96710.66
2022-11-22T09:55:24.166Z,96711.41
2022-11-22T09:57:35.063Z,96716.19
2022-11-22T09:59:45.884Z,96703.75
2022-11-22T10:01:55.780Z,96705.28
2022-11-22T10:04:05.930Z,96705.53
2022-11-22T10:06:16.822Z,96701.00
2022-11-22T10:08:37.012Z,96695.41
2022-11-22T10:10:45.857Z,96695.41
2022-11-22T10:12:55.802Z,96696.16
2022-11-22T10:15:06.046Z,96698.88
2022-11-22T10:17:24.058Z,96703.19
2022-11-22T10:19:37.934Z,96694.41
2022-11-22T10:21:42.950Z,96693.50
2022-11-22T10:23:50.880Z,96700.88
2022-11-22T10:26:00.942Z,96703.13
2022-11-22T10:28:16.476Z,96707.47
2022-11-22T10:30:24.632Z,96701.94
2022-11-22T10:32:37.376Z,96708.38
2022-11-22T10:34:55.442Z,96707.69
2022-11-22T10:37:08.230Z,96712.31
2022-11-22T10:39:22.464Z,96706.28
2022-11-22T10:41:45.958Z,96706.13
2022-11-22T10:44:01.065Z,96709.34
2022-11-22T10:46:16.048Z,96706.16
2022-11-22T10:48:31.248Z,96705.53
2022-11-22T10:50:47.298Z,96713.13
2022-11-22T10:53:00.993Z,96712.06
2022-11-22T10:55:24.696Z,96709.81
2022-11-22T10:57:39.073Z,96716.25
2022-11-22T10:59:59.356Z,96708.28
2022-11-22T11:02:12.025Z,96711.63
2022-11-22T11:04:22.123Z,96717.41
2022-11-22T11:07:04.226Z,96709.38
2022-11-22T11:11:33.156Z,96710.34
2022-11-22T11:13:41.545Z,96704.97
2022-11-22T11:15:55.999Z,96706.63
2022-11-22T11:18:04.503Z,96707.75
2022-11-22T11:20:18.933Z,96694.69
2022-11-22T11:22:58.744Z,96699.69
2022-11-22T11:24:51.526Z,96699.44
2022-11-22T11:27:01.064Z,96693.59
2022-11-22T11:29:38.552Z,96695.72
2022-11-22T11:31:45.542Z,96697.28
2022-11-22T11:33:50.567Z,96693.66
2022-11-22T11:35:58.573Z,96693.28
2022-11-22T11:38:03.410Z,96698.03
2022-11-22T11:40:09.802Z,96683.41
2022-11-22T11:42:30.915Z,96682.94
2022-11-22T11:44:37.922Z,96674.13
2022-11-22T11:46:49.263Z,96676.91
2022-11-22T11:48:55.799Z,96679.03
2022-11-22T11:51:19.176Z,96681.84
2022-11-22T11:53:28.750Z,96687.09
2022-11-22T11:55:34.331Z,96687.22
2022-11-22T11:57:47.785Z,96677.84
2022-11-22T11:59:54.245Z,96676.06
2022-11-22T12:02:06.239Z,96678.94
2022-11-22T12:04:23.008Z,96678.84
2022-11-22T12:06:32.230Z,96675.75
2022-11-22T12:08:38.226Z,96667.84
2022-11-22T12:10:52.391Z,96667.63
2022-11-22T12:13:05.195Z,96662.09
2022-11-22T12:15:18.748Z,96661.41
2022-11-22T12:17:29.360Z,96655.00
2022-11-22T12:19:44.895Z,96657.28
2022-11-22T12:21:58.791Z,96650.72
2022-11-22T12:24:34.938Z,96649.47
2022-11-22T12:26:34.499Z,96642.00
2022-11-22T12:28:43.794Z,96635.94
2022-11-22T12:30:52.445Z,96631.91
2022-11-22T12:33:04.773Z,96620.56
2022-11-22T12:35:14.536Z,96620.97
2022-11-22T12:37:23.440Z,96617.81
2022-11-22T12:39:30.169Z,96621.94
2022-11-22T12:41:36.437Z,96626.22
2022-11-22T12:43:49.217Z,96632.13
2022-11-22T12:45:57.788Z,96634.16
2022-11-22T12:48:05.274Z,96623.41
2022-11-22T12:50:18.447Z,96627.75
2022-11-22T12:52:28.983Z,96628.84
2022-11-22T12:54:45.451Z,96621.03
2022-11-22T12:56:54.662Z,96624.66
2022-11-22T12:59:09.186Z,96616.88
2022-11-22T13:01:21.278Z,96616.59
2022-11-22T13:03:33.067Z,96618.00
2022-11-22T13:05:43.635Z,96618.44
2022-11-22T13:07:59.054Z,96617.38
2022-11-22T13:10:09.916Z,96614.94
2022-11-22T13:12:16.533Z,96609.69
2022-11-22T13:14:27.193Z,96618.75
2022-11-22T13:16:32.098Z,96616.06
2022-11-22T13:18:43.731Z,96621.69
2022-11-22T13:20:57.327Z,96616.31
2022-11-22T13:23:22.710Z,96621.38
2022-11-22T13:25:46.543Z,96614.44
2022-11-22T13:27:55.002Z,96611.75
2022-11-22T13:30:04.757Z,96608.13
2022-11-22T13:32:20.586Z,96615.16
2022-11-22T13:34:27.945Z,96609.34
2022-11-22T13:36:45.264Z,96615.16
2022-11-22T13:38:50.363Z,96605.91
2022-11-22T13:40:55.429Z,96610.91
2022-11-22T13:43:21.605Z,96615.47
2022-11-22T13:45:29.917Z,96611.66
2022-11-22T13:47:40.331Z,96613.22
2022-11-22T13:49:49.078Z,96620.34
2022-11-22T13:51:59.404Z,96618.91
2022-11-22T13:54:34.263Z,96627.31
2022-11-22T13:57:02.247Z,96622.34
2022-11-22T13:59:15.177Z,96628.28
2022-11-22T14:01:50.805Z,96633.06
2022-11-22T14:04:32.034Z,96628.81
2022-11-22T14:06:37.431Z,96633.28
2022-11-22T14:08:42.559Z,96633.56
2022-11-22T14:11:08.596Z,96637.09
2022-11-22T14:13:29.406Z,96631.25
2022-11-22T14:15:53.719Z,96638.22
2022-11-22T14:18:12.403Z,96638.31
2022-11-22T14:20:37.787Z,96638.50
2022-11-22T14:22:52.816Z,96639.53
2022-11-22T14:25:15.851Z,96645.69
2022-11-22T14:27:31.000Z,96656.25
2022-11-22T14:30:11.481Z,96651.88
2022-11-22T14:32:20.611Z,96654.06
2022-11-22T14:34:27.281Z,96656.84
2022-11-22T14:36:34.760Z,96656.84
2022-11-22T14:38:40.406Z,96658.78
2022-11-22T14:40:48.055Z,96655.47
2022-11-22T14:42:56.371Z,96656.47
2022-11-22T14:45:02.379Z,96661.75
2022-11-22T14:47:14.802Z,96651.38
2022-11-22T14:49:26.651Z,96658.34
2022-11-22T14:51:35.584Z,96650.81
2022-11-22T14:53:48.756Z,96652.50
2022-11-22T14:55:57.231Z,96653.59
2022-11-22T14:58:04.623Z,96659.09
2022-11-22T15:00:19.755Z,96655.75
2022-11-22T15:03:08.910Z,96653.47
2022-11-22T15:09:12.790Z,96661.41
2022-11-22T15:09:20.789Z,96662.28
2022-11-22T15:11:10.778Z,96665.97
2022-11-22T15:13:52.631Z,96671.25
2022-11-22T15:58:25.834Z,96755.50
2022-11-22T16:00:32.447Z,96752.00
2022-11-22T16:02:40.358Z,96754.69
2022-11-22T16:06:07.160Z,96752.84
2022-11-22T16:07:29.665Z,96752.00
2022-11-22T16:09:38.021Z,96759.88
2022-11-22T16:11:48.718Z,96764.31
2022-11-22T16:13:53.497Z,96762.91
2022-11-22T16:16:19.406Z,96767.16
2022-11-22T16:18:28.973Z,96763.66
2022-11-22T16:20:36.120Z,96775.72
2022-11-22T16:22:43.212Z,96778.19
2022-11-22T16:24:48.042Z,96781.63
2022-11-22T16:26:59.668Z,96781.63
2022-11-22T16:29:22.196Z,96778.19
2022-11-22T16:31:28.968Z,96780.97
2022-11-22T16:33:34.343Z,96776.78
2022-11-22T16:35:39.257Z,96776.72
2022-11-22T16:37:48.277Z,96771.75
2022-11-22T16:39:53.251Z,96776.28
2022-11-22T16:42:01.303Z,96778.22
2022-11-22T16:44:13.717Z,96776.53
2022-11-22T16:46:18.650Z,96775.81
2022-11-22T16:48:33.407Z,96783.47
2022-11-22T16:50:38.515Z,96782.00
2022-11-22T16:52:43.735Z,96779.56
2022-11-22T16:54:48.252Z,96775.28
2022-11-22T16:56:53.084Z,96782.22
2022-11-22T16:59:01.297Z,96791.59
2022-11-22T17:01:17.389Z,96782.91
2022-11-22T17:03:29.810Z,96776.81
2022-11-22T17:05:37.216Z,96776.88
2022-11-22T17:07:44.095Z,96773.56
2022-11-22T17:09:49.549Z,96779.63
2022-11-22T17:11:54.972Z,96778.06
2022-11-22T17:14:03.997Z,96785.00
2022-11-22T17:16:11.211Z,96791.28
2022-11-22T17:18:19.472Z,96793.94
2022-11-22T17:20:27.879Z,96797.47
2022-11-22T17:22:35.730Z,96798.66
2022-11-22T17:24:43.867Z,96801.31
2022-11-22T17:26:48.920Z,96799.91
2022-11-22T17:28:54.052Z,96807.75
2022-11-22T17:31:06.929Z,96814.88
2022-11-22T17:33:15.764Z,96819.22
2022-11-22T17:35:20.727Z,96814.03
2022-11-22T17:37:33.910Z,96808.88
2022-11-22T17:39:40.874Z,96812.44
2022-11-22T17:41:48.357Z,96813.44
2022-11-22T17:43:53.415Z,96816.09
2022-11-22T17:45:58.871Z,96826.56
2022-11-22T17:48:06.970Z,96829.22
2022-11-22T17:50:14.380Z,96824.97
2022-11-22T17:52:22.224Z,96824.38
2022-11-22T17:54:27.298Z,96831.50
2022-11-22T17:56:39.166Z,96840.09
2022-11-22T17:58:44.755Z,96844.50
2022-11-22T18:00:49.580Z,96845.44
2022-11-22T18:02:54.409Z,96847.19
2022-11-22T18:05:08.402Z,96856.56
2022-11-22T18:07:14.735Z,96861.91
2022-11-22T18:09:19.567Z,96858.47
2022-11-22T18:11:24.356Z,96855.03
2022-11-22T18:13:29.985Z,96858.47
2022-11-22T18:15:34.805Z,96866.81
2022-11-22T18:17:39.662Z,96865.94
2022-11-22T18:19:44.492Z,96864.16
2022-11-22T18:21:51.859Z,96864.00
2022-11-22T18:23:56.677Z,96870.00
2022-11-22T18:28:27.879Z,96866.59
2022-11-22T18:30:33.377Z,96870.13
2022-11-22T18:32:38.187Z,96869.34
2022-11-22T18:34:42.985Z,96863.25
2022-11-22T18:37:04.316Z,96870.13
2022-11-22T18:39:12.196Z,96870.94
2022-11-22T18:41:17.224Z,96876.13
2022-11-22T18:43:22.260Z,96882.13
2022-11-22T18:45:30.433Z,96879.53
2022-11-22T18:47:35.214Z,96882.19
2022-11-22T18:49:40.031Z,96883.13
2022-11-22T18:51:44.907Z,96885.13
2022-11-22T18:53:49.702Z,96884.97
2022-11-22T18:55:57.083Z,96887.38
2022-11-22T18:58:02.128Z,96892.66
2022-11-22T19:00:07.391Z,96891.84
2022-11-22T19:02:12.257Z,96895.16
2022-11-22T19:04:18.053Z,96894.31
2022-11-22T19:06:24.046Z,96897.69
2022-11-22T19:08:28.815Z,96897.59
2022-11-22T19:10:33.651Z,96891.66
2022-11-22T19:12:41.007Z,96894.25
2022-11-22T19:14:46.081Z,96886.38
2022-11-22T19:16:51.002Z,96895.16
2022-11-22T19:18:55.920Z,96889.91
2022-11-22T19:21:00.719Z,96886.31
2022-11-22T19:23:05.698Z,96891.34
2022-11-22T19:25:11.577Z,96892.00
2022-11-22T19:27:19.192Z,96879.81
2022-11-22T19:29:26.685Z,96876.41
2022-11-22T19:31:32.164Z,96867.69
2022-11-22T19:33:37.099Z,96869.28
2022-11-22T19:35:41.995Z,96874.38
2022-11-22T19:37:47.068Z,96871.72
2022-11-22T19:39:52.168Z,96867.53
2022-11-22T19:41:57.252Z,96874.31
2022-11-22T19:44:02.919Z,96875.78
2022-11-22T19:46:11.133Z,96870.53
2022-11-22T19:48:17.806Z,96879.16
2022-11-22T19:50:23.417Z,96879.06
2022-11-22T19:52:28.629Z,96878.16
2022-11-22T19:54:33.471Z,96878.31
2022-11-22T19:56:44.026Z,96879.22
2022-11-22T19:58:54.275Z,96876.47
2022-11-22T20:00:59.520Z,96874.72
2022-11-22T20:03:07.263Z,96881.50
2022-11-22T20:05:12.656Z,96878.16
2022-11-22T20:07:18.290Z,96885.94
2022-11-22T20:09:23.760Z,96880.75
2022-11-22T20:11:28.574Z,96886.09
2022-11-22T20:13:36.612Z,96899.78
2022-11-22T20:15:41.616Z,96888.25
2022-11-22T20:17:46.714Z,96884.75
2022-11-22T20:19:54.152Z,96894.28
2022-11-22T20:21:59.724Z,96897.72
2022-11-22T20:24:05.698Z,96898.44
2022-11-22T20:26:13.020Z,96907.81
2022-11-22T20:28:17.826Z,96906.00
2022-11-22T20:30:22.727Z,96908.69
2022-11-22T20:32:27.630Z,96905.16
2022-11-22T20:34:34.199Z,96911.19
2022-11-22T20:36:41.719Z,96901.63
2022-11-22T20:38:47.776Z,96911.94
2022-11-22T20:40:58.791Z,96911.84
2022-11-22T20:43:03.678Z,96927.31
2022-11-22T20:45:09.807Z,96916.84
2022-11-22T20:47:15.209Z,96913.19
2022-11-22T20:49:20.116Z,96918.28
2022-11-22T20:51:26.523Z,96917.63
2022-11-22T20:53:34.146Z,96919.97
2022-11-22T20:55:39.076Z,96912.19
2022-11-22T20:57:43.891Z,96910.44
2022-11-22T20:59:48.662Z,96905.16
2022-11-22T21:01:54.357Z,96901.81
2022-11-22T21:03:59.175Z,96906.75
2022-11-22T21:06:05.182Z,96907.41
2022-11-22T21:08:09.990Z,96905.69
2022-11-22T21:10:18.316Z,96907.41
2022-11-22T21:12:23.131Z,96911.72
2022-11-22T21:14:27.937Z,96904.69
2022-11-22T21:16:33.543Z,96903.94
2022-11-22T21:18:38.390Z,96909.16
2022-11-22T21:20:43.175Z,96904.78
2022-11-22T21:22:47.935Z,96909.13
2022-11-22T21:24:52.756Z,96908.34
2022-11-22T21:27:00.130Z,96904.81
2022-11-22T21:29:15.970Z,96916.03
2022-11-22T21:31:22.828Z,96908.34
2022-11-22T21:33:28.272Z,96919.50
2022-11-22T21:35:33.079Z,96915.03
2022-11-22T21:37:37.907Z,96909.13
2022-11-22T21:39:45.585Z,96918.56
2022-11-22T21:41:50.407Z,96917.78
2022-11-22T21:43:59.560Z,96921.16
2022-11-22T21:46:04.424Z,96917.78
2022-11-22T21:48:09.222Z,96922.22
2022-11-22T21:50:15.394Z,96921.53
2022-11-22T21:52:20.503Z,96921.63
2022-11-22T21:54:26.661Z,96919.88
2022-11-22T21:56:31.962Z,96921.63
2022-11-22T21:58:36.876Z,96921.03
2022-11-22T22:00:46.276Z,96924.81
2022-11-22T22:02:51.094Z,96933.00
2022-11-22T22:04:55.893Z,96933.25
2022-11-22T22:07:00.724Z,96934.50
2022-11-22T22:09:05.556Z,96943.28
2022-11-22T22:11:10.953Z,96948.63
2022-11-22T22:13:15.433Z,96943.75
2022-11-22T22:15:20.450Z,96943.91
2022-11-22T22:17:27.953Z,96946.56
2022-11-22T22:19:34.669Z,96948.34
2022-11-22T22:21:39.467Z,96952.75
2022-11-22T22:23:45.339Z,96957.16
2022-11-22T22:25:50.116Z,96957.41
2022-11-22T22:27:54.946Z,96960.06
2022-11-22T22:29:59.841Z,96959.34
2022-11-22T22:32:10.176Z,96958.72
2022-11-22T22:34:19.213Z,96964.91
2022-11-22T22:36:24.819Z,96957.34
2022-11-22T22:38:29.685Z,96964.44
2022-11-22T22:40:34.536Z,96960.41
2022-11-22T22:42:39.335Z,96962.16
2022-11-22T22:44:44.098Z,96957.97
2022-11-22T22:46:48.845Z,96967.66
2022-11-22T22:48:54.895Z,96966.97
2022-11-22T22:51:07.124Z,96966.97
2022-11-22T22:53:11.915Z,96971.38
2022-11-22T22:55:17.116Z,96971.44
2022-11-22T22:57:21.942Z,96979.38
2022-11-22T22:59:26.686Z,96985.47
2022-11-22T23:01:33.015Z,96977.81
2022-11-22T23:03:38.816Z,96994.38
2022-11-22T23:05:43.904Z,96982.25
2022-11-22T23:07:51.335Z,96983.03
2022-11-22T23:09:56.127Z,96987.53
2022-11-22T23:12:15.766Z,96985.84
2022-11-22T23:14:21.993Z,96988.56
2022-11-22T23:16:26.774Z,96986.16
2022-11-22T23:18:31.965Z,96992.41
2022-11-22T23:20:36.545Z,96989.13
2022-11-22T23:22:44.335Z,96988.41
2022-11-22T23:24:51.750Z,96992.75
2022-11-22T23:26:56.618Z,96997.31
2022-11-22T23:29:01.817Z,96996.56
2022-11-22T23:31:07.002Z,97002.03
2022-11-22T23:33:11.766Z,96992.72
2022-11-22T23:35:18.820Z,96998.81
2022-11-22T23:37:23.555Z,96999.75
2022-11-22T23:39:28.697Z,97000.72
2022-11-22T23:41:36.369Z,96999.09
2022-11-22T23:43:43.093Z,96999.16
2022-11-22T23:45:48.808Z,97003.59
2022-11-22T23:47:54.038Z,96995.13
2022-11-22T23:49:58.853Z,97006.34
2022-11-22T23:52:03.802Z,97002.13
2022-11-22T23:54:09.178Z,97016.88
2022-11-22T23:56:21.628Z,97016.88
2022-11-22T23:58:32.692Z,97013.47
